createdAt,value
2023-03-28T00:13:19.668Z,2024.16968
2023-03-28T00:28:21.305Z,2018.07279
2023-03-28T00:43:22.952Z,2033.38442
2023-03-28T00:58:24.583Z,2082.36258
2023-03-28T01:13:26.210Z,2120.25367
2023-03-28T01:28:27.956Z,2159.54925
2023-03-28T01:43:29.605Z,2225.91413
2023-03-28T01:58:31.245Z,2275.04295
2023-03-28T02:13:32.896Z,2322.35753
2023-03-28T02:28:34.556Z,2348.81734
2023-03-28T02:43:36.178Z,2386.46534
2023-03-28T02:58:37.847Z,2454.21297
2023-03-28T03:13:39.496Z,2470.0466
2023-03-28T03:28:41.139Z,2533.0818
2023-03-28T03:43:43.866Z,2619.74636
2023-03-28T03:58:46.374Z,2693.46786
2023-03-28T04:13:48.051Z,2760.04172
2023-03-28T04:28:49.737Z,2740.28682
2023-03-28T04:43:51.439Z,2757.20217
2023-03-28T04:58:53.108Z,2709.80841
2023-03-28T05:13:54.743Z,2601.94227
2023-03-28T05:28:56.375Z,2661.37093
2023-03-28T05:43:58.051Z,2718.05326
2023-03-28T05:58:59.729Z,2737.48775
2023-03-28T06:14:01.380Z,2762.88712
2023-03-28T06:29:03.016Z,2707.07123
2023-03-28T06:44:04.664Z,2848.03453
2023-03-28T06:59:06.339Z,2900.43343
2023-03-28T07:14:07.994Z,2971.1757
2023-03-28T07:29:09.655Z,2919.39051
2023-03-28T07:44:11.291Z,2991.07191
2023-03-28T07:59:12.927Z,3059.36121
2023-03-28T08:14:14.566Z,2967.88536
2023-03-28T08:29:16.171Z,3112.66018
2023-03-28T08:44:17.814Z,3173.47591
2023-03-28T08:59:19.485Z,3084.00509
2023-03-28T09:14:21.137Z,3147.38745
2023-03-28T09:29:22.829Z,3194.27939
2023-03-28T09:44:24.565Z,3092.90297
2023-03-28T09:59:27.819Z,3158.51551
2023-03-28T10:14:30.262Z,3179.12267
2023-03-28T10:29:32.046Z,3119.90735
2023-03-28T10:44:33.713Z,3209.58132
2023-03-28T10:59:35.358Z,3186.68301
2023-03-28T11:14:37.090Z,2797.49531
2023-03-28T11:29:43.589Z,2745.90216
2023-03-28T11:44:45.901Z,2682.6832
2023-03-28T11:59:47.768Z,2707.07123
2023-03-28T12:14:49.440Z,2782.97041
2023-03-28T12:29:51.102Z,2737.48775
2023-03-28T12:44:52.749Z,2854.10063
2023-03-28T12:59:54.410Z,2845.01114
2023-03-28T13:14:56.066Z,2848.03453
2023-03-28T13:29:57.708Z,2718.05326
2023-03-28T13:44:59.361Z,2635.20209
2023-03-28T14:00:01.094Z,2685.37126
2023-03-28T14:15:02.780Z,2726.34844
2023-03-28T14:30:04.499Z,2803.34781
2023-03-28T14:45:06.157Z,2887.93156
2023-03-28T15:00:07.803Z,2841.99416
2023-03-28T15:15:09.449Z,2951.54238
2023-03-28T15:30:11.112Z,2977.77831
2023-03-28T15:45:12.762Z,2984.41033
2023-03-28T16:00:14.437Z,3026.53916
2023-03-28T16:15:16.115Z,2987.73738
2023-03-28T16:30:17.797Z,3045.45503
2023-03-28T16:45:19.449Z,3066.36204
2023-03-28T17:00:21.097Z,3038.54924
2023-03-28T17:15:22.754Z,3087.55809
2023-03-28T17:30:24.391Z,3087.55809
2023-03-28T17:45:26.148Z,3087.55809
2023-03-28T18:00:30.176Z,3047.18638
2023-03-28T18:15:33.014Z,2961.3265
2023-03-28T18:30:34.664Z,2835.97936
2023-03-28T18:45:36.387Z,2760.04172
2023-03-28T19:00:38.091Z,2740.28682
2023-03-28T19:15:39.747Z,2688.06471
2023-03-28T19:30:41.557Z,2630.02996
2023-03-28T19:45:43.198Z,2535.47828
2023-03-28T20:00:44.846Z,2456.46247
2023-03-28T20:15:46.585Z,2431.94244
2023-03-28T20:30:48.294Z,2456.46247
2023-03-28T20:45:49.951Z,2451.96758
2023-03-28T21:00:51.649Z,2472.32524
2023-03-28T21:15:53.322Z,2454.21297
2023-03-28T21:30:54.941Z,2500.00051
2023-03-28T21:45:56.648Z,2486.08586
2023-03-28T22:00:58.476Z,2371.68193
2023-03-28T22:31:02.124Z,2308.35537
2023-03-28T22:46:04.248Z,2248.32265
2023-03-28T23:01:05.980Z,2257.79326
2023-03-28T23:16:07.821Z,2233.33384
2023-03-28T23:31:09.543Z,2205.76182
2023-03-28T23:46:11.209Z,2352.94169
